Time;durP1;ratioP1;P1;durP2;ratioP2;P2;SDS_P1;SDS_P2;PMS_P1;PMS_P2;Temp;Humidity;BMP_temperature;BMP_pressure;BME280_temperature;BME280_humidity;BME280_pressure;Samples;Min_cycle;Max_cycle;Signal;HPM_P1;HPM_P2
2021/07/04 00:02:24;;;;;;;8.10;7.45;;;;;;;26.42;55.32;100628.93;1683365;84;21051;-46
2021/07/04 00:04:51;;;;;;;8.48;7.67;;;;;;;26.42;55.32;100628.93;1663310;85;21269;-47
2021/07/04 00:07:19;;;;;;;8.13;7.40;;;;;;;26.42;55.22;100626.26;1654323;85;21046;-47
2021/07/04 00:09:47;;;;;;;8.33;7.62;;;;;;;26.41;55.42;100624.55;1644531;85;21137;-46
2021/07/04 00:12:13;;;;;;;9.35;8.35;;;;;;;26.41;55.48;100616.06;1651870;84;21046;-47
2021/07/04 00:14:40;;;;;;;10.38;8.25;;;;;;;26.41;55.33;100617.89;1671975;85;21030;-48
2021/07/04 00:17:07;;;;;;;9.83;8.68;;;;;;;26.39;54.96;100614.03;1672122;85;21094;-46
2021/07/04 00:19:35;;;;;;;8.80;7.78;;;;;;;26.39;54.96;100614.03;1651900;85;21018;-48
2021/07/04 00:22:03;;;;;;;8.68;7.87;;;;;;;26.40;55.26;100613.52;1664515;84;21060;-47
2021/07/04 00:24:30;;;;;;;9.55;8.10;;;;;;;26.40;54.90;100613.52;1668981;85;21022;-47
2021/07/04 00:26:57;;;;;;;8.78;8.03;;;;;;;26.43;54.80;100615.44;1664192;84;21052;-48
2021/07/04 00:29:24;;;;;;;8.58;7.87;;;;;;;26.39;54.85;100611.36;1677929;85;21097;-47
2021/07/04 00:31:51;;;;;;;8.88;8.08;;;;;;;26.37;54.96;100609.80;1659708;85;21070;-47
2021/07/04 00:34:18;;;;;;;8.75;7.85;;;;;;;26.30;55.09;100606.84;1675110;85;21008;-47
2021/07/04 00:36:46;;;;;;;8.70;7.90;;;;;;;26.32;55.01;100618.69;1685856;81;21106;-47
2021/07/04 00:39:12;;;;;;;9.25;8.40;;;;;;;26.26;55.60;100612.57;1728865;81;21046;-47
2021/07/04 00:41:39;;;;;;;8.70;7.92;;;;;;;26.26;55.60;100612.57;1744170;81;21096;-47
2021/07/04 00:44:07;;;;;;;9.05;8.25;;;;;;;26.22;55.79;100612.50;1731985;82;21067;-48
2021/07/04 00:46:33;;;;;;;8.73;7.83;;;;;;;26.22;55.79;100612.50;1737863;81;21459;-47
2021/07/04 00:49:01;;;;;;;10.18;9.13;;;;;;;26.20;55.95;100615.79;1732809;81;21009;-49
2021/07/04 00:51:29;;;;;;;10.10;9.15;;;;;;;26.18;56.06;100611.08;1740481;82;21491;-46
2021/07/04 00:53:56;;;;;;;10.72;8.80;;;;;;;26.16;56.26;100605.89;1742603;82;21002;-48
2021/07/04 00:56:23;;;;;;;9.50;8.60;;;;;;;26.16;56.01;100603.70;1727383;82;21086;-48
2021/07/04 00:58:51;;;;;;;9.25;8.45;;;;;;;26.14;56.11;100605.66;1738642;82;21007;-48
2021/07/04 01:01:18;;;;;;;9.00;8.20;;;;;;;26.12;56.10;100604.95;1732865;82;21080;-48
2021/07/04 01:03:44;;;;;;;10.25;9.35;;;;;;;26.10;56.44;100605.59;1745561;82;21210;-47
2021/07/04 01:06:11;;;;;;;9.63;8.73;;;;;;;26.09;56.26;100603.40;1732607;82;20998;-47
2021/07/04 01:08:40;;;;;;;10.23;9.33;;;;;;;26.07;56.54;100603.17;1728913;82;21066;-47
2021/07/04 01:11:07;;;;;;;9.63;8.73;;;;;;;26.03;56.15;100600.42;1749500;82;21061;-47
2021/07/04 01:13:35;;;;;;;9.78;8.85;;;;;;;25.99;56.35;100607.01;1743169;81;21045;-47
2021/07/04 01:16:17;;;;;;;10.00;8.88;;;;;;;25.96;57.01;100613.45;1748289;81;21053;-47
2021/07/04 01:18:44;;;;;;;9.98;9.05;;;;;;;25.96;57.01;100613.45;1737787;82;21026;-48
2021/07/04 01:21:13;;;;;;;10.20;9.20;;;;;;;25.95;57.17;100605.56;1744059;81;21537;-48
2021/07/04 01:23:41;;;;;;;10.32;9.35;;;;;;;25.95;57.30;100608.23;1716690;82;21035;-49
2021/07/04 01:26:08;;;;;;;10.90;9.05;;;;;;;25.93;57.15;100612.37;1750042;82;21011;-47
2021/07/04 01:28:36;;;;;;;10.25;9.13;;;;;;;25.87;57.42;100595.58;1730306;81;21041;-48
2021/07/04 01:31:05;;;;;;;9.73;8.83;;;;;;;25.87;57.42;100595.58;1735158;81;21061;-48
2021/07/04 01:33:33;;;;;;;10.03;9.13;;;;;;;25.86;57.41;100601.05;1747197;82;20998;-48
2021/07/04 01:36:00;;;;;;;10.82;9.70;;;;;;;25.84;56.91;100598.02;1753707;82;21006;-48
2021/07/04 01:38:31;;;;;;;10.75;9.68;;;;;;;25.82;56.85;100609.81;1728250;81;21026;-47
2021/07/04 01:40:58;;;;;;;10.18;9.18;;;;;;;25.78;57.05;100603.88;1733291;81;21021;-48
2021/07/04 01:43:25;;;;;;;10.05;9.25;;;;;;;25.77;57.08;100608.88;1737577;82;21515;-48
2021/07/04 01:45:52;;;;;;;9.90;9.00;;;;;;;25.72;57.44;100599.09;1737860;82;21037;-48
2021/07/04 01:48:20;;;;;;;9.33;8.53;;;;;;;25.72;57.44;100599.09;1747251;82;21030;-49
2021/07/04 01:53:19;;;;;;;;;;;;;;;25.71;57.49;100609.41;1686685;85;21025;-47
2021/07/04 01:55:48;;;;;;;9.90;9.10;;;;;;;25.70;57.34;100607.70;1640414;86;20090;-48
2021/07/04 01:58:15;;;;;;;9.90;8.90;;;;;;;25.69;57.46;100611.84;1607820;87;21051;-48
2021/07/04 02:00:45;;;;;;;10.82;9.80;;;;;;;25.68;57.49;100606.14;1622081;88;21159;-48
2021/07/04 02:03:12;;;;;;;11.88;10.32;;;;;;;25.66;57.41;100609.43;1662290;85;20995;-47
2021/07/04 02:05:48;;;;;;;10.08;9.08;;;;;;;25.63;57.75;100607.91;1679703;85;21027;-47
2021/07/04 02:08:17;;;;;;;9.93;8.93;;;;;;;25.63;57.62;100613.23;1659096;84;21050;-48
2021/07/04 02:10:45;;;;;;;10.38;9.15;;;;;;;25.60;57.53;100605.48;1655677;86;21147;-47
2021/07/04 02:13:13;;;;;;;10.05;9.05;;;;;;;25.58;57.69;100601.26;1673759;85;21105;-47
2021/07/04 02:15:42;;;;;;;10.58;9.50;;;;;;;25.55;57.79;100602.39;1682849;85;21503;-47
2021/07/04 02:18:17;;;;;;;10.25;9.23;;;;;;;25.53;57.77;100597.66;1658824;84;21532;-47
2021/07/04 02:20:52;;;;;;;10.38;9.30;;;;;;;25.51;58.01;100592.94;1656416;85;21514;-47
2021/07/04 02:23:27;;;;;;;12.65;9.83;;;;;;;25.50;57.99;100591.75;1566786;90;21105;-49
2021/07/04 02:26:01;;;;;;;11.03;9.90;;;;;;;25.48;58.28;100593.23;1553622;90;21073;-47
2021/07/04 02:28:30;;;;;;;10.03;9.18;;;;;;;25.47;58.46;100596.03;1579649;90;21110;-49
2021/07/04 02:30:58;;;;;;;10.35;9.40;;;;;;;25.46;58.40;100590.33;1559734;90;21145;-48
2021/07/04 02:33:26;;;;;;;9.85;8.90;;;;;;;25.44;58.36;100587.80;1558401;90;21158;-47
2021/07/04 02:35:57;;;;;;;10.75;9.65;;;;;;;25.44;58.31;100592.28;1560991;90;21560;-48
2021/07/04 02:38:25;;;;;;;10.25;9.35;;;;;;;25.41;58.40;100601.38;1557384;92;21080;-48
2021/07/04 02:40:54;;;;;;;10.65;9.58;;;;;;;25.39;58.42;100597.97;1570194;90;21112;-47
2021/07/04 02:43:23;;;;;;;11.00;9.95;;;;;;;25.39;58.74;100597.14;1566436;89;21049;-47
2021/07/04 02:45:50;;;;;;;10.80;9.80;;;;;;;25.38;58.63;100587.45;1556109;90;21081;-47
2021/07/04 02:48:19;;;;;;;10.68;9.68;;;;;;;25.37;58.76;100589.27;1585926;90;21074;-48
2021/07/04 02:50:50;;;;;;;11.08;10.08;;;;;;;25.37;58.88;100587.93;1610675;88;21026;-48
2021/07/04 02:53:18;;;;;;;10.80;9.73;;;;;;;25.37;58.98;100583.11;1603745;89;21094;-48
2021/07/04 02:55:47;;;;;;;11.33;9.73;;;;;;;25.36;58.92;100582.27;1605772;88;21550;-47
2021/07/04 02:58:14;;;;;;;11.25;9.98;;;;;;;25.36;58.94;100582.27;1602214;89;21094;-48
2021/07/04 03:00:44;;;;;;;11.30;10.30;;;;;;;25.36;58.94;100579.59;1634734;84;21084;-47
2021/07/04 03:03:11;;;;;;;14.85;10.30;;;;;;;25.35;59.23;100577.08;1694209;84;21041;-48
2021/07/04 03:05:39;;;;;;;13.98;10.75;;;;;;;25.35;59.39;100580.56;1688877;84;21065;-47
2021/07/04 03:08:06;;;;;;;11.20;10.18;;;;;;;25.34;59.59;100573.56;1695630;84;21061;-47
2021/07/04 03:10:33;;;;;;;11.12;10.13;;;;;;;25.33;59.40;100573.19;1697016;84;21036;-47
2021/07/04 03:13:00;;;;;;;11.30;10.30;;;;;;;25.33;59.52;100581.18;1696271;84;21076;-47
2021/07/04 03:15:27;;;;;;;11.05;10.05;;;;;;;25.32;59.82;100581.32;1674813;84;21077;-48
2021/07/04 03:17:55;;;;;;;12.85;11.45;;;;;;;25.30;60.00;100577.46;1668797;84;21085;-47
2021/07/04 03:20:23;;;;;;;12.18;10.72;;;;;;;25.27;60.15;100579.05;1722204;81;21068;-47
2021/07/04 03:22:52;;;;;;;11.60;10.50;;;;;;;25.27;60.15;100579.05;1728987;81;21007;-48
2021/07/04 03:25:19;;;;;;;13.00;11.78;;;;;;;25.26;60.04;100577.37;1726348;82;21056;-48
2021/07/04 03:27:46;;;;;;;12.58;11.53;;;;;;;25.26;60.58;100576.04;1721997;82;21171;-48
2021/07/04 03:30:17;;;;;;;13.58;12.25;;;;;;;25.26;60.59;100577.37;1734623;82;21534;-48
2021/07/04 03:32:47;;;;;;;12.95;11.78;;;;;;;25.26;60.53;100578.70;1747406;81;21025;-48
2021/07/04 03:35:15;;;;;;;12.50;11.20;;;;;;;25.26;60.75;100573.38;1753688;82;21014;-47
2021/07/04 03:37:44;;;;;;;13.13;11.97;;;;;;;25.26;60.82;100568.53;1708381;82;21070;-47
2021/07/04 03:40:15;;;;;;;12.65;11.45;;;;;;;25.26;60.84;100581.36;1735070;82;21011;-47
2021/07/04 03:42:43;;;;;;;12.68;11.55;;;;;;;25.28;60.89;100574.56;1731676;82;20980;-47
2021/07/04 03:45:12;;;;;;;12.40;11.08;;;;;;;25.28;60.44;100576.75;1742359;82;21081;-49
2021/07/04 03:47:40;;;;;;;12.75;11.12;;;;;;;25.28;60.45;100576.75;1732707;82;21515;-49
2021/07/04 03:50:11;;;;;;;12.78;11.60;;;;;;;25.31;60.51;100576.95;1728778;81;21045;-48
2021/07/04 03:52:41;;;;;;;;;;;;;;;25.37;60.49;100587.93;1742357;81;20994;-48
2021/07/04 03:55:11;;;;;;;12.45;11.18;;;;;;;25.43;60.60;100597.27;1746755;81;20176;-48
2021/07/04 03:57:40;;;;;;;;;;;;;;;25.49;60.01;100598.89;1731787;82;21041;-49
2021/07/04 04:00:11;;;;;;;12.37;11.15;;;;;;;25.55;59.95;100597.06;1750730;80;20192;-49
2021/07/04 04:02:44;;;;;;;12.23;11.12;;;;;;;25.61;59.63;100607.19;1753693;80;21478;-48
2021/07/04 04:05:14;;;;;;;12.43;11.18;;;;;;;25.66;59.04;100599.63;1745018;80;21446;-48
2021/07/04 04:07:44;;;;;;;20.37;12.03;;;;;;;25.59;58.68;100606.96;1761160;80;21059;-49
2021/07/04 04:10:13;;;;;;;19.52;12.28;;;;;;;25.59;58.68;100606.96;1756901;81;21097;-48
2021/07/04 04:12:40;;;;;;;12.10;10.90;;;;;;;25.55;59.18;100599.73;1751982;80;21012;-49
2021/07/04 04:15:09;;;;;;;15.78;11.45;;;;;;;25.53;59.37;100602.16;1753632;80;21027;-48
2021/07/04 04:17:38;;;;;;;12.95;11.70;;;;;;;25.49;59.34;100598.08;1758767;80;21040;-48
2021/07/04 04:20:06;;;;;;;18.55;11.15;;;;;;;25.46;59.44;100598.32;1738796;81;21517;-48
2021/07/04 04:22:33;;;;;;;11.97;10.88;;;;;;;25.43;59.51;100596.76;1765416;80;21025;-47
2021/07/04 04:25:00;;;;;;;12.65;11.25;;;;;;;25.42;59.33;100603.08;1754124;80;21076;-48
2021/07/04 04:27:27;;;;;;;12.47;11.38;;;;;;;25.39;58.99;100600.63;1753105;80;21034;-47
2021/07/04 04:29:55;;;;;;;12.45;11.22;;;;;;;25.36;58.96;100598.72;1746413;80;21033;-48
2021/07/04 04:32:23;;;;;;;14.13;11.15;;;;;;;25.33;59.11;100603.82;1764820;80;21503;-48
2021/07/04 04:34:50;;;;;;;13.10;11.75;;;;;;;25.27;59.04;100596.35;1757533;80;21045;-47
2021/07/04 04:37:17;;;;;;;13.25;11.90;;;;;;;25.25;59.54;100600.97;1752279;80;21314;-48
2021/07/04 04:39:44;;;;;;;12.10;10.90;;;;;;;25.24;59.71;100601.95;1760770;80;21043;-48
2021/07/04 04:42:12;;;;;;;12.35;11.03;;;;;;;25.26;59.55;100589.36;1764604;80;21030;-50
2021/07/04 04:44:39;;;;;;;16.15;11.85;;;;;;;25.26;59.28;100592.02;1753070;80;20998;-48
2021/07/04 04:47:06;;;;;;;12.60;11.30;;;;;;;25.28;59.16;100598.06;1756484;80;21006;-48
2021/07/04 04:49:36;;;;;;;15.13;12.53;;;;;;;25.26;58.96;100598.67;1750332;81;21109;-48
2021/07/04 04:52:05;;;;;;;12.95;11.75;;;;;;;25.25;59.42;100602.30;1758153;80;21058;-48
2021/07/04 04:54:32;;;;;;;12.90;11.70;;;;;;;25.24;59.76;100601.95;1764098;80;21021;-48
2021/07/04 04:57:05;;;;;;;13.00;11.70;;;;;;;25.25;59.55;100600.11;1751238;80;21005;-48
2021/07/04 04:59:27;;;;;;;12.85;11.60;;;;;;;25.26;59.81;100591.16;1755691;80;21514;-49
2021/07/04 05:01:54;;;;;;;13.00;11.70;;;;;;;25.30;59.83;100578.80;1754060;80;21046;-48
2021/07/04 05:04:20;;;;;;;25.12;11.65;;;;;;;25.33;59.48;100575.85;1753894;81;20993;-49
2021/07/04 05:06:48;;;;;;;27.65;12.13;;;;;;;25.37;59.32;100563.95;1763938;80;20995;-49
2021/07/04 05:09:16;;;;;;;13.90;12.03;;;;;;;25.41;59.12;100564.08;1749152;80;21502;-49
2021/07/04 05:11:44;;;;;;;16.10;12.37;;;;;;;25.48;58.90;100566.59;1748964;80;21076;-49
2021/07/04 05:14:14;;;;;;;13.20;12.07;;;;;;;25.52;58.86;100570.67;1758536;80;21014;-49
2021/07/04 05:16:40;;;;;;;14.58;11.93;;;;;;;25.60;59.04;100562.85;1772237;80;20974;-49
2021/07/04 05:19:07;;;;;;;14.00;11.65;;;;;;;25.68;58.70;100568.36;1780421;80;20963;-48
2021/07/04 05:21:35;;;;;;;17.20;12.55;;;;;;;25.75;58.47;100565.52;1768036;80;21525;-48
2021/07/04 05:24:05;;;;;;;13.03;11.93;;;;;;;25.80;58.24;100567.28;1759374;80;21004;-49
2021/07/04 05:26:32;;;;;;;13.85;12.37;;;;;;;25.85;57.85;100565.55;1759361;80;21098;-49
2021/07/04 05:28:59;;;;;;;16.00;13.32;;;;;;;25.90;57.96;100571.81;1759829;80;21057;-49
2021/07/04 05:31:26;;;;;;;13.70;12.40;;;;;;;25.96;57.88;100576.12;1756666;80;21039;-49
2021/07/04 05:33:53;;;;;;;15.58;11.95;;;;;;;26.01;57.94;100573.88;1757959;80;21081;-49
2021/07/04 05:36:19;;;;;;;12.70;11.45;;;;;;;26.07;57.75;100574.69;1752927;80;21017;-48
2021/07/04 05:38:48;;;;;;;12.68;11.38;;;;;;;26.13;57.80;100569.33;1754300;80;21432;-49
2021/07/04 05:41:15;;;;;;;12.33;11.12;;;;;;;26.19;57.49;100573.63;1735457;80;21054;-48
2021/07/04 05:43:44;;;;;;;13.00;11.70;;;;;;;26.24;57.02;100575.38;1760272;80;20994;-46
2021/07/04 05:46:12;;;;;;;11.95;10.53;;;;;;;26.29;57.21;100577.16;1776860;80;21057;-48
2021/07/04 05:48:41;;;;;;;12.58;11.30;;;;;;;26.38;57.16;100567.45;1764519;80;21023;-49
2021/07/04 05:51:09;;;;;;;15.53;10.78;;;;;;;26.46;56.81;100575.13;1743591;80;20987;-49
2021/07/04 05:53:36;;;;;;;11.85;10.68;;;;;;;26.58;56.30;100582.53;1748821;80;21011;-47
2021/07/04 05:56:03;;;;;;;14.18;10.28;;;;;;;26.58;56.30;100582.53;1741410;80;21522;-49
2021/07/04 05:58:30;;;;;;;11.85;10.50;;;;;;;26.63;55.88;100586.45;1750817;80;21481;-50
2021/07/04 06:00:56;;;;;;;12.30;10.90;;;;;;;26.66;55.89;100592.02;1755095;80;21054;-46
2021/07/04 06:03:23;;;;;;;14.15;11.00;;;;;;;26.68;55.97;100593.20;1750954;80;21065;-49
2021/07/04 06:05:50;;;;;;;15.40;10.55;;;;;;;26.67;56.01;100601.69;1754044;80;21087;-50
2021/07/04 06:08:18;;;;;;;16.75;11.25;;;;;;;26.71;56.25;100593.75;1742946;80;21057;-47
2021/07/04 06:10:46;;;;;;;11.88;10.68;;;;;;;26.71;56.25;100593.75;1768367;80;21014;-51
2021/07/04 06:13:15;;;;;;;11.80;10.50;;;;;;;26.79;56.56;100604.60;1763883;80;21027;-49
2021/07/04 06:15:42;;;;;;;12.33;11.12;;;;;;;26.86;56.51;100604.41;1753571;80;20990;-49
2021/07/04 06:18:08;;;;;;;11.73;9.88;;;;;;;26.90;56.15;100613.82;1766703;80;21021;-51
2021/07/04 06:20:35;;;;;;;13.03;11.15;;;;;;;26.92;55.82;100621.20;1739170;81;20959;-49
2021/07/04 06:23:02;;;;;;;11.88;10.65;;;;;;;26.87;55.49;100607.92;1752101;80;21015;-47
2021/07/04 06:25:29;;;;;;;13.93;10.50;;;;;;;26.85;55.46;100617.42;1757711;80;21014;-48
2021/07/04 06:27:56;;;;;;;12.43;11.22;;;;;;;26.78;55.75;100614.95;1762572;80;21075;-48
2021/07/04 06:30:23;;;;;;;12.18;10.70;;;;;;;26.74;55.96;100620.22;1756074;80;21028;-47
2021/07/04 06:32:50;;;;;;;13.18;11.22;;;;;;;26.68;56.07;100615.89;1742560;80;21089;-51
2021/07/04 06:35:17;;;;;;;12.15;10.60;;;;;;;26.61;55.80;100614.26;1756742;80;21015;-50
2021/07/04 06:37:44;;;;;;;13.05;11.00;;;;;;;26.54;55.97;100609.14;1733347;81;21034;-50
2021/07/04 06:40:13;;;;;;;12.82;10.05;;;;;;;26.49;56.18;100613.55;1752700;80;21565;-50
2021/07/04 06:42:39;;;;;;;16.67;10.85;;;;;;;26.48;56.22;100620.37;1744698;80;21041;-48
2021/07/04 06:45:10;;;;;;;13.03;11.03;;;;;;;26.47;56.42;100624.00;1754652;80;20999;-47
2021/07/04 06:47:42;;;;;;;11.93;10.72;;;;;;;26.48;56.58;100625.70;1756761;80;20995;-49
2021/07/04 06:50:11;;;;;;;11.55;10.35;;;;;;;26.47;56.30;100632.86;1766774;80;20986;-50
2021/07/04 06:52:38;;;;;;;11.10;9.98;;;;;;;26.47;56.30;100632.86;1729457;82;21530;-48
2021/07/04 06:55:06;;;;;;;12.20;10.68;;;;;;;26.46;56.36;100635.67;1712747;82;21047;-51
2021/07/04 06:57:33;;;;;;;14.40;10.08;;;;;;;26.46;56.36;100635.67;1726791;82;20988;-48
2021/07/04 07:00:12;;;;;;;12.13;10.70;;;;;;;26.45;56.38;100635.30;1721568;82;20967;-48
2021/07/04 07:02:39;;;;;;;12.98;10.78;;;;;;;26.44;56.48;100625.62;1720749;82;21032;-50
2021/07/04 07:05:08;;;;;;;11.53;10.48;;;;;;;26.42;56.96;100630.27;1752723;80;21046;-48
2021/07/04 07:07:35;;;;;;;13.83;10.80;;;;;;;26.42;56.96;100630.27;1737772;81;21521;-49
2021/07/04 07:10:06;;;;;;;12.65;11.03;;;;;;;26.44;56.94;100636.30;1774391;80;21085;-48
2021/07/04 07:12:33;;;;;;;14.78;10.58;;;;;;;26.45;56.85;100623.30;1776377;80;21010;-51
2021/07/04 07:14:59;;;;;;;16.73;11.43;;;;;;;26.47;57.25;100621.34;1767727;80;21015;-48
2021/07/04 07:17:26;;;;;;;13.13;11.20;;;;;;;26.53;56.99;100615.44;1766764;80;21058;-49
2021/07/04 07:19:54;;;;;;;15.10;11.55;;;;;;;26.53;56.99;100615.44;1780363;80;21074;-50
2021/07/04 07:22:23;;;;;;;12.73;11.22;;;;;;;26.52;57.00;100605.77;1757230;80;21054;-49
2021/07/04 07:24:50;;;;;;;15.13;11.65;;;;;;;26.57;57.22;100603.51;1751782;80;21015;-49
2021/07/04 07:27:18;;;;;;;15.18;10.15;;;;;;;26.57;57.22;100603.51;1752030;81;21027;-50
2021/07/04 07:29:46;;;;;;;11.88;10.30;;;;;;;26.56;57.18;100605.33;1745593;80;21085;-53
2021/07/04 07:32:13;;;;;;;12.07;9.93;;;;;;;26.58;56.86;100602.55;1756483;80;21034;-49
2021/07/04 07:34:40;;;;;;;11.43;10.30;;;;;;;26.59;56.65;100601.06;1750695;80;20970;-51
2021/07/04 07:37:08;;;;;;;13.78;10.38;;;;;;;26.60;56.58;100598.73;1752955;80;22554;-49
2021/07/04 07:39:35;;;;;;;10.78;9.68;;;;;;;26.63;56.54;100608.29;1768129;81;21109;-51
2021/07/04 07:42:02;;;;;;;11.65;10.45;;;;;;;26.65;56.64;100608.17;1754392;80;21511;-48
2021/07/04 07:44:29;;;;;;;10.80;9.65;;;;;;;26.69;57.04;100610.40;1754674;80;21570;-48
2021/07/04 07:46:58;;;;;;;10.88;9.23;;;;;;;26.69;57.04;100610.40;1762997;80;21026;-50
2021/07/04 07:49:24;;;;;;;10.58;9.43;;;;;;;26.71;56.61;100608.44;1759080;80;20971;-50
2021/07/04 07:51:51;;;;;;;11.40;10.03;;;;;;;26.75;56.53;100603.20;1758231;80;21034;-51
2021/07/04 07:54:19;;;;;;;12.80;9.70;;;;;;;26.76;56.53;100596.89;1750092;80;21049;-49
2021/07/04 07:56:46;;;;;;;11.97;9.38;;;;;;;26.80;56.81;100600.97;1763369;80;20940;-50
2021/07/04 07:59:13;;;;;;;13.50;10.15;;;;;;;26.83;56.91;100594.00;1747095;80;21553;-49
2021/07/04 08:01:40;;;;;;;13.25;9.18;;;;;;;26.89;57.10;100597.95;1748934;80;21039;-49
2021/07/04 08:04:08;;;;;;;10.95;9.85;;;;;;;26.94;57.11;100597.87;1757250;80;20975;-47
2021/07/04 08:06:35;;;;;;;10.53;9.45;;;;;;;27.00;56.61;100598.64;1758842;80;21624;-47
2021/07/04 08:09:04;;;;;;;10.53;9.03;;;;;;;27.08;56.88;100596.09;1756152;80;21058;-52
2021/07/04 08:11:47;;;;;;;19.07;10.50;;;;;;;27.08;56.88;100596.09;1754048;80;21031;-49
2021/07/04 08:14:15;;;;;;;13.22;9.35;;;;;;;27.11;56.60;100586.96;1759563;80;21037;-48
2021/07/04 08:16:48;;;;;;;12.37;9.48;;;;;;;27.16;56.57;100593.55;1743984;80;21006;-49
2021/07/04 08:19:16;;;;;;;10.65;9.23;;;;;;;27.18;56.57;100589.42;1753829;81;21029;-48
2021/07/04 08:21:43;;;;;;;10.32;9.00;;;;;;;27.26;56.41;100585.54;1761202;80;21025;-48
2021/07/04 08:24:10;;;;;;;14.55;10.13;;;;;;;27.26;56.41;100585.54;1762259;80;21027;-50
2021/07/04 08:26:38;;;;;;;10.75;8.60;;;;;;;27.30;56.33;100589.61;1766593;80;21481;-51
2021/07/04 08:29:06;;;;;;;10.18;9.25;;;;;;;27.36;56.27;100591.73;1756417;80;21050;-51
2021/07/04 08:31:33;;;;;;;14.40;9.90;;;;;;;27.41;56.47;100589.97;1751054;80;21113;-49
2021/07/04 08:34:00;;;;;;;11.10;10.00;;;;;;;27.48;56.28;100593.25;1754242;81;21011;-48
2021/07/04 08:36:31;;;;;;;10.40;9.40;;;;;;;27.56;56.12;100588.50;1763538;80;20995;-48
2021/07/04 08:38:56;;;;;;;10.63;9.48;;;;;;;27.61;56.11;100590.26;1762496;80;21561;-48
2021/07/04 08:41:23;;;;;;;10.58;9.05;;;;;;;27.66;56.00;100585.30;1750395;80;21007;-50
2021/07/04 08:43:52;;;;;;;9.18;8.28;;;;;;;27.72;55.91;100580.73;1747323;80;21030;-47
2021/07/04 08:46:19;;;;;;;10.08;9.08;;;;;;;27.77;55.48;100585.98;1742878;80;21029;-49
2021/07/04 08:48:46;;;;;;;10.68;8.20;;;;;;;27.81;55.22;100590.04;1743496;81;21517;-48
2021/07/04 08:51:12;;;;;;;11.10;8.38;;;;;;;27.86;55.17;100590.94;1751740;80;21029;-48
2021/07/04 08:53:40;;;;;;;10.48;7.62;;;;;;;27.90;54.85;100593.66;1738995;80;21127;-48
2021/07/04 08:56:07;;;;;;;8.23;7.53;;;;;;;27.93;54.45;100592.02;1750461;80;21507;-49
2021/07/04 08:58:33;;;;;;;9.78;7.87;;;;;;;27.95;54.27;100586.02;1736287;81;21055;-52
2021/07/04 09:01:18;;;;;;;8.70;7.80;;;;;;;27.98;54.11;100591.97;1741849;80;21034;-47
2021/07/04 09:03:47;;;;;;;8.05;7.45;;;;;;;28.00;53.85;100591.81;1757562;80;21046;-46
2021/07/04 09:06:14;;;;;;;9.18;8.28;;;;;;;28.04;53.60;100595.88;1746153;80;21017;-48
2021/07/04 09:08:42;;;;;;;9.03;8.10;;;;;;;28.05;53.52;100598.39;1753124;81;21564;-48
2021/07/04 09:11:15;;;;;;;9.00;7.30;;;;;;;28.11;53.54;100592.94;1692554;83;21060;-47
2021/07/04 09:13:47;;;;;;;8.58;7.75;;;;;;;28.15;53.21;100589.00;1686532;83;20999;-48
2021/07/04 09:16:20;;;;;;;9.43;8.20;;;;;;;28.19;53.14;100592.54;1687269;83;21063;-51
2021/07/04 09:19:11;;;;;;;10.15;7.87;;;;;;;28.22;52.94;100592.74;1736036;82;20960;-47
2021/07/04 09:21:38;;;;;;;17.45;7.72;;;;;;;28.24;52.84;100590.76;1726659;81;21059;-48
2021/07/04 09:24:25;;;;;;;9.95;7.97;;;;;;;28.27;52.73;100585.13;1706387;82;21098;-48
2021/07/04 09:26:52;;;;;;;9.15;8.25;;;;;;;28.30;53.05;100577.27;1761606;80;21022;-49
2021/07/04 09:29:41;;;;;;;8.15;7.45;;;;;;;28.33;53.26;100576.48;1763445;80;21542;-46
2021/07/04 09:32:16;;;;;;;8.38;7.53;;;;;;;28.37;53.20;100573.86;1760222;80;21160;-50
2021/07/04 09:34:58;;;;;;;8.75;7.95;;;;;;;28.44;52.95;100569.56;1677257;83;21554;-48
2021/07/04 09:37:38;;;;;;;9.65;8.70;;;;;;;28.51;52.70;100570.65;1662903;85;21010;-46
2021/07/04 09:40:24;;;;;;;10.25;8.18;;;;;;;28.57;52.29;100571.41;1580981;89;21091;-49
2021/07/04 09:43:08;;;;;;;8.53;7.75;;;;;;;28.62;51.81;100562.44;1543665;92;21169;-48
2021/07/04 09:45:50;;;;;;;7.95;7.25;;;;;;;28.66;51.55;100558.45;1529334;91;21053;-50
2021/07/04 09:48:35;;;;;;;9.03;8.23;;;;;;;28.68;51.34;100559.14;1518406;93;21097;-48
2021/07/04 09:51:12;;;;;;;8.75;7.92;;;;;;;28.67;51.29;100554.77;1531605;92;21185;-47
2021/07/04 09:53:45;;;;;;;8.85;8.05;;;;;;;28.73;51.46;100555.98;1516718;92;21114;-47
2021/07/04 09:56:24;;;;;;;8.40;7.55;;;;;;;28.75;51.83;100549.48;1514894;93;21254;-50
2021/07/04 09:59:00;;;;;;;10.20;6.87;;;;;;;28.79;51.90;100550.85;1539779;92;21593;-52
2021/07/04 10:01:43;;;;;;;8.43;7.10;;;;;;;28.84;51.55;100552.58;1540860;92;21136;-46
2021/07/04 10:04:32;;;;;;;10.90;7.15;;;;;;;28.87;51.29;100550.92;1515574;93;21176;-46
2021/07/04 10:06:59;;;;;;;9.53;6.87;;;;;;;28.92;50.65;100546.44;1497517;93;21095;-48
2021/07/04 10:09:28;;;;;;;7.70;6.70;;;;;;;28.95;50.76;100548.30;1513309;93;21129;-48
2021/07/04 10:11:56;;;;;;;7.50;6.70;;;;;;;28.97;50.09;100548.98;1530373;92;21177;-47
2021/07/04 10:14:23;;;;;;;6.95;6.35;;;;;;;28.98;50.19;100548.00;1535616;92;21085;-49
2021/07/04 10:16:51;;;;;;;9.18;7.97;;;;;;;29.00;49.92;100539.80;1495632;95;21309;-48
2021/07/04 10:19:24;;;;;;;9.55;6.62;;;;;;;29.02;50.26;100537.81;1493921;95;21690;-51
2021/07/04 10:22:02;;;;;;;9.60;7.00;;;;;;;29.03;50.14;100531.95;1535824;92;21133;-48
2021/07/04 10:24:29;;;;;;;7.70;6.97;;;;;;;29.05;50.25;100532.16;1527172;92;21098;-49
2021/07/04 10:26:57;;;;;;;7.80;7.10;;;;;;;29.09;49.90;100534.01;1515664;93;21099;-49
2021/07/04 10:29:28;;;;;;;9.83;6.87;;;;;;;29.11;49.50;100530.67;1516692;93;21090;-48
2021/07/04 10:32:07;;;;;;;17.82;8.20;;;;;;;29.11;49.64;100528.00;1514592;92;21105;-50
2021/07/04 10:34:43;;;;;;;7.35;6.65;;;;;;;29.15;49.97;100532.07;1524601;91;21319;-48
2021/07/04 10:37:11;;;;;;;10.40;7.20;;;;;;;29.17;49.81;100530.08;1589080;86;21050;-49
2021/07/04 10:39:37;;;;;;;7.17;6.65;;;;;;;29.21;50.17;100526.08;1765440;80;21193;-48
2021/07/04 10:42:07;;;;;;;16.55;6.47;;;;;;;29.26;50.08;100531.82;1765961;80;21022;-50
2021/07/04 10:44:49;;;;;;;8.08;6.92;;;;;;;29.28;50.03;100520.44;1762593;80;21443;-46
2021/07/04 10:47:23;;;;;;;7.40;6.55;;;;;;;29.31;49.46;100522.79;1736861;81;21003;-49
2021/07/04 10:50:08;;;;;;;11.63;6.40;;;;;;;29.32;49.38;100524.48;1751545;80;21068;-50
2021/07/04 10:52:39;;;;;;;7.08;6.40;;;;;;;29.33;48.66;100516.77;1754594;80;21029;-46
2021/07/04 10:55:17;;;;;;;6.92;6.35;;;;;;;29.33;49.13;100519.45;1747831;80;21085;-47
2021/07/04 10:58:02;;;;;;;7.25;6.58;;;;;;;29.35;48.88;100520.12;1728222;81;21078;-50
2021/07/04 11:00:42;;;;;;;7.40;6.80;;;;;;;29.38;48.89;100518.48;1731812;82;21146;-49
2021/07/04 11:03:12;;;;;;;9.55;6.40;;;;;;;29.40;49.01;100521.84;1741077;82;21034;-50
2021/07/04 11:05:44;;;;;;;6.97;6.37;;;;;;;29.40;48.63;100517.34;1729555;81;21014;-47
2021/07/04 11:08:30;;;;;;;6.78;6.08;;;;;;;29.41;48.61;100514.13;1730663;82;21051;-50
2021/07/04 11:11:08;;;;;;;6.67;6.12;;;;;;;29.42;48.81;100513.99;1704737;82;21113;-51
2021/07/04 11:13:42;;;;;;;10.40;6.87;;;;;;;29.43;48.83;100514.84;1689991;83;21064;-51
2021/07/04 11:16:15;;;;;;;7.10;6.37;;;;;;;29.45;48.61;100510.16;1656799;85;21058;-53
2021/07/04 11:18:54;;;;;;;7.85;6.92;;;;;;;29.45;48.43;100504.80;1525327;93;21625;-50
2021/07/04 11:21:46;;;;;;;7.75;6.85;;;;;;;29.45;48.07;100494.89;1457648;96;21174;-50
2021/07/04 11:24:26;;;;;;;8.18;7.47;;;;;;;29.47;48.39;100503.61;1438028;98;21614;-48
2021/07/04 11:27:19;;;;;;;10.03;7.15;;;;;;;29.50;48.83;100499.78;1446807;98;21598;-52
2021/07/04 11:30:25;;;;;;;7.85;6.75;;;;;;;29.50;48.74;100506.48;1438890;98;21151;-48
2021/07/04 11:33:32;;;;;;;8.48;6.58;;;;;;;29.48;48.24;100507.98;1434585;98;22527;-50